Relevés horaires Melle (Belgique)


Relevés horaires à Melle - Mardi 17 Nov. 2015
Heure UTC1 Température [°C] Vent [km/h] Hum. [%] Pres.4 [hPa] Visi. [Km] Nébu. [octa] Préc.5 [mm] Cond.
2m. Res. Ros. Dir.2 Vit. Moy. Raf.3
23:00 14.6 13.2 8.6 OSO 20.4 -- 42.6 67 1007.3(0.8/3h) -- -- -- --
22:00 15.3 13.8 9.7 OSO 24.1 25.9 40.7 69 1007.2(1.0/3h) -- -- -- --
21:00 15.6 14.4 10.4 OSO 20.4 24.1 38.9 71 1006.8(0.4/3h) -- -- -- --
20:00 16.1 15 11.3 OSO 20.4 20.4 33.3 73 1006.5(0.7/3h) -- -- -- --
19:00 16.1 15.3 12.2 OSO 16.7 18.5 29.6 78 1006.1(-0.2/3h) -- -- -- --
18:00 15.3 14.3 13.9 SO 16.7 18.5 29.6 91 1006.4(-1.2/3h) -- -- 2/12h
--
17:00 15.0 14.1 13.5 SSO 14.8 16.7 27.8 91 1005.8(-3.0/3h) -- -- -- --
16:00 15.1 14.2 12.6 SSO 14.8 14.8 22.2 85 1006.4(-2.8/3h) -- -- -- --
15:00 15.0 14.5 11.6 SSO 11.1 14.8 24.1 80 1007.6(-2.1/3h) -- -- -- --
14:00 15.1 14.4 11.0 OSO 13.0 14.8 24.1 76 1008.8(-1.0/3h) -- -- -- --
13:00 14.8 14 11.2 OSO 13.0 14.8 24.1 79 1009.2(-0.4/3h) -- -- -- --
12:00 15.0 14.3 11.6 OSO 13.0 14.8 24.1 80 1009.7(0.1/3h) -- -- 0/0h
0/6h
--
11:00 14.8 14.2 10.8 OSO 11.1 13.0 24.1 77 1009.8(0.9/3h) -- -- -- --
10:00 14.7 14.3 11.4 OSO 9.3 11.1 18.5 81 1009.6(1.7/3h) -- -- -- --
09:00 14.2 13.7 10.5 OSO 9.3 14.8 22.2 78 1009.6(2.3/3h) -- -- -- --
08:00 13.9 13.4 10.7 OSO 9.3 13.0 22.2 81 1008.9(2.1/3h) -- -- -- --
07:00 14.5 13.7 11.6 OSO 13.0 14.8 22.2 83 1007.9(0.8/3h) -- -- -- --
06:00 14.7 13.7 12.5 OSO 14.8 20.4 31.5 87 1007.3(-0.9/3h) -- -- 10/12h
--
05:00 14.0 12.9 12.8 SO 14.8 14.8 24.1 92 1006.8(-1.4/3h) -- -- -- --
04:00 13.4 12.3 12.2 SSO 13.0 13.0 20.4 92 1007.1(-3.5/3h) -- -- -- --
03:00 13.2 12.1 11.6 SSO 13.0 20.4 31.5 90 1008.2(-2.4/3h) -- -- -- --
02:00 13.3 11.8 11.6 SSO 16.7 18.5 27.8 89 1008.2(-3.5/3h) -- -- -- --
01:00 13.0 12.3 11.5 SO 9.3 11.1 16.7 91 1010.6(-1.8/3h) -- -- -- --
00:00 12.9 12.2 11.2 SSO 9.3 11.1 16.7 89 1010.6(-2.4/3h) -- -- 1/6h
--

1 Coordinated Universal Time. Actuellement il est 01:00 locale et 23:00 UTC.

2 Le vent souffle depuis la direction indiquée vers la direction oposée.

3 Les rafales max. sont disponible 40 min après l'heure du relevé.

4 Pour les stations d'altitude (plus de 600m) le géopotentiel du niveau le plus proche de la pression obligatoire est indiqué.

5 Les stations disposant d'un diffuseur peuvent indiquer "trace". Cela signifie que des précipitations ont touchés le sol mais que la quantité est inférieure à 0.1 mm.

Récapitulatif de la journée
Température [°C] Vent [km/h] Ensoleillement4 [h] Precipitations totale5 [mm] Pression [Hpa]
Min1 Max.2 Moy.3 Max. Min Max.
12.3 15.6 16.3 42.6 0 h 0 min 0 1005.8 1010.6

1 Température minimale relevée entre 18:00 UTC la veille et 18:00 UTC le jour donné.

2 Température maximale relevée entre 06:00 UTC le jour donné et 06:00 UTC le lendemain.

3 Vent moyen de la journée basé sur les relevés horaires.

4 Ensoleillement en heures relevé entre 06:00 UTC la veille et 06:00 UTC le jour donné.

5 Précipitations totales tombées entre 06:00 UTC la jour donné et 06:00 UTC le lendemain.

Graphiques horaires